首页
METAR-TAF:

METAR-TAF

机场 :

特洛伊, 阿拉巴马州, 美国

纬度: 31-51-38N, 经度: 086-00-44W, 海拔: 121米

当前天气观测

该预报发布于59分钟前的09:53 UTC
风速4节,风向东转东北
温度 22°C
湿度 94%
气压 1014 hPa
能見度: 16.1公里
少量云层高于1300英尺
散云层高于4000英尺
阴天层高于5500英尺

METAR: KTOI 260953Z AUTO 07004KT 10SM FEW013 SCT040 OVC055 22/21 A2994 RMK AO2 RAE43 SLP134 P0001 T02220206

时间: 05:52 (10:52 UTC)

预报

该预报发布于4小时和30分钟前的06:22 UTC
预报有效从26日的 06点(UTC)到 27日的 06点(UTC)
风速6节,风向
能見度: 10公里
阴天层高于9000英尺
小阵雨
从 26日的 1100点(UTC)
风速7节,风向
能見度: 10公里
阴天层高于2800英尺
从 26日的 1400点(UTC)
风速10节,风向,有时为18节阵风
能見度: 10公里
阴天层高于2000英尺
几率 30%
从 26日的 15点(UTC)到 26日的 18点(UTC)
能見度: 6.4公里
阵雨
从 26日的 1800点(UTC)
风速10节,风向,有时为18节阵风
能見度: 10公里
阴天层高于2500英尺
阵雨
从 27日的 0000点(UTC)
风速9节,风向
能見度: 10公里
多云层高于2800英尺
几率 30%
从 27日的 00点(UTC)到 27日的 06点(UTC)
能見度: 6.4公里
阵雨

TAF: KTOI 260622Z 2606/2706 10006KT P6SM -SHRA OVC090 FM261100 08007KT P6SM OVC028 FM261400 08010G18KT P6SM OVC020 PROB30 2615/2618 4SM SHRA FM261800 08010G18KT P6SM SHRA OVC025 FM270000 08009KT P6SM BKN028 PROB30 2700/2706 4SM SHRA

超过4000个机场的气象观测和天气预报(METAR&TAF报告)。

可查询的气象台以黄色和红色小点在地图上表示。

将鼠标移到小点上方,可查看气象台名称。

然后点击查看天气观测和预报。

如需切换地图:点击带黑十字的绿色按钮放大地图;点击带横线的绿色按钮缩小地图;或者点击绿色箭头查看邻近地区的地图。


METAR-TAF: